createdAt,value
2023-04-30T00:01:48.909Z,3.38
2023-04-30T00:04:16.618Z,2.90
2023-04-30T00:06:45.734Z,3.10
2023-04-30T00:09:13.593Z,3.03
2023-04-30T00:11:41.236Z,2.25
2023-04-30T00:14:10.529Z,2.10
2023-04-30T00:16:38.196Z,3.30
2023-04-30T00:19:06.337Z,2.70
2023-04-30T00:21:34.007Z,3.53
2023-04-30T00:24:03.764Z,3.83
2023-04-30T00:26:31.338Z,3.38
2023-04-30T00:28:59.002Z,3.22
2023-04-30T00:31:26.718Z,3.50
2023-04-30T00:33:54.325Z,2.83
2023-04-30T00:36:21.900Z,2.47
2023-04-30T00:38:49.537Z,3.28
2023-04-30T00:41:19.577Z,2.88
2023-04-30T00:43:47.195Z,3.47
2023-04-30T00:46:14.936Z,3.40
2023-04-30T00:48:42.660Z,2.78
2023-04-30T00:51:10.635Z,3.50
2023-04-30T00:53:39.175Z,4.78
2023-04-30T00:56:09.389Z,2.95
2023-04-30T00:58:39.484Z,2.50
2023-04-30T01:01:07.219Z,2.78
2023-04-30T01:03:36.730Z,2.83
2023-04-30T01:06:04.817Z,2.83
2023-04-30T01:08:33.246Z,2.72
2023-04-30T01:11:12.790Z,2.72
2023-04-30T01:13:51.284Z,2.53
2023-04-30T01:16:24.861Z,3.15
2023-04-30T01:18:57.920Z,2.78
2023-04-30T01:21:27.915Z,3.03
2023-04-30T01:24:25.630Z,3.65
2023-04-30T01:27:07.996Z,2.85
2023-04-30T01:29:37.901Z,3.58
2023-04-30T01:32:05.621Z,2.95
2023-04-30T01:34:33.505Z,3.30
2023-04-30T01:37:12.731Z,2.60
2023-04-30T01:39:57.694Z,2.78
2023-04-30T01:42:33.378Z,2.72
2023-04-30T01:45:27.754Z,2.92
2023-04-30T01:48:04.169Z,3.95
2023-04-30T01:50:39.587Z,3.15
2023-04-30T01:53:11.566Z,2.55
2023-04-30T01:55:44.984Z,2.55
2023-04-30T01:58:15.908Z,2.40
2023-04-30T02:00:44.947Z,2.60
2023-04-30T02:03:12.704Z,3.17
2023-04-30T02:05:40.433Z,2.80
2023-04-30T02:08:08.402Z,2.47
2023-04-30T02:10:36.108Z,3.70
2023-04-30T02:13:03.708Z,2.10
2023-04-30T02:15:31.417Z,2.45
2023-04-30T02:18:00.733Z,3.50
2023-04-30T02:20:28.398Z,2.53
2023-04-30T02:22:56.091Z,2.67
2023-04-30T02:25:23.933Z,3.63
2023-04-30T02:27:51.671Z,2.22
2023-04-30T02:30:20.884Z,2.65
2023-04-30T02:32:48.938Z,2.10
2023-04-30T02:35:18.006Z,2.17
2023-04-30T02:37:45.742Z,2.67
2023-04-30T02:40:13.824Z,2.50
2023-04-30T02:42:41.497Z,2.40
2023-04-30T02:45:09.931Z,2.50
2023-04-30T02:47:37.651Z,2.83
2023-04-30T02:50:06.340Z,3.10
2023-04-30T02:52:35.267Z,3.15
2023-04-30T02:55:02.937Z,2.75
2023-04-30T02:57:33.202Z,2.80
2023-04-30T03:00:00.776Z,2.63
2023-04-30T03:02:28.510Z,2.38
2023-04-30T03:04:56.264Z,3.40
2023-04-30T03:07:23.949Z,2.72
2023-04-30T03:09:53.398Z,3.00
2023-04-30T03:12:21.208Z,2.50
2023-04-30T03:14:48.771Z,3.45
2023-04-30T03:17:16.605Z,2.45
2023-04-30T03:19:44.297Z,3.17
2023-04-30T03:22:12.204Z,2.28
2023-04-30T03:24:39.825Z,2.65
2023-04-30T03:27:08.742Z,2.78
2023-04-30T03:29:36.355Z,4.07
2023-04-30T03:32:04.310Z,3.10
2023-04-30T03:34:32.545Z,2.83
2023-04-30T03:37:01.715Z,2.90
2023-04-30T03:39:29.313Z,2.88
2023-04-30T03:41:56.973Z,3.10
2023-04-30T03:44:25.948Z,3.05
2023-04-30T03:46:53.546Z,2.75
2023-04-30T03:49:21.243Z,3.40
2023-04-30T03:51:48.853Z,3.28
2023-04-30T03:54:16.653Z,2.95
2023-04-30T03:56:44.341Z,3.17
2023-04-30T03:59:12.390Z,3.25
2023-04-30T04:01:41.542Z,3.38
2023-04-30T04:04:09.977Z,3.25
2023-04-30T04:06:37.700Z,3.03
2023-04-30T04:09:06.185Z,3.42
2023-04-30T04:11:34.197Z,2.65
2023-04-30T04:14:03.212Z,3.28
2023-04-30T04:16:30.884Z,3.22
2023-04-30T04:19:00.100Z,2.78
2023-04-30T04:21:28.818Z,4.05
2023-04-30T04:23:56.645Z,3.47
2023-04-30T04:26:25.488Z,3.40
2023-04-30T04:28:53.178Z,4.38
2023-04-30T04:31:22.571Z,4.32
2023-04-30T04:33:50.281Z,3.75
2023-04-30T04:36:19.228Z,3.58
2023-04-30T04:38:47.044Z,3.15
2023-04-30T04:41:14.636Z,3.33
2023-04-30T04:43:42.400Z,3.67
2023-04-30T04:46:12.281Z,3.67
2023-04-30T04:48:41.358Z,3.28
2023-04-30T04:51:09.029Z,3.33
2023-04-30T04:53:37.902Z,3.85
2023-04-30T04:56:07.094Z,3.20
2023-04-30T04:58:34.776Z,3.42
2023-04-30T05:01:02.942Z,3.10
2023-04-30T05:03:32.321Z,3.10
2023-04-30T05:06:00.475Z,3.05
2023-04-30T05:08:28.059Z,3.25
2023-04-30T05:10:57.016Z,3.03
2023-04-30T05:13:24.680Z,3.13
2023-04-30T05:15:53.779Z,3.38
2023-04-30T05:18:21.685Z,3.17
2023-04-30T05:20:49.610Z,3.13
2023-04-30T05:23:17.230Z,4.05
2023-04-30T05:25:45.490Z,2.70
2023-04-30T05:28:14.469Z,2.70
2023-04-30T05:30:42.037Z,3.22
2023-04-30T05:33:09.751Z,2.30
2023-04-30T05:35:37.413Z,3.17
2023-04-30T05:38:07.359Z,2.97
2023-04-30T05:40:34.933Z,2.78
2023-04-30T05:43:02.511Z,3.35
2023-04-30T05:45:31.467Z,3.13
2023-04-30T05:47:59.259Z,2.40
2023-04-30T05:50:27.079Z,3.08
2023-04-30T05:52:54.728Z,2.65
2023-04-30T05:55:22.362Z,2.75
2023-04-30T05:57:49.991Z,2.72
2023-04-30T06:00:18.214Z,3.20
2023-04-30T06:02:47.334Z,2.33
2023-04-30T06:05:16.301Z,2.78
2023-04-30T06:07:44.084Z,3.22
2023-04-30T06:10:12.561Z,3.17
2023-04-30T06:12:40.430Z,3.30
2023-04-30T06:15:08.825Z,3.13
2023-04-30T06:17:36.553Z,2.78
2023-04-30T06:20:07.160Z,3.53
2023-04-30T06:22:35.080Z,2.33
2023-04-30T06:25:03.585Z,2.95
2023-04-30T06:27:32.491Z,2.42
2023-04-30T06:30:01.085Z,1.67
2023-04-30T06:32:28.809Z,2.55
2023-04-30T06:34:56.621Z,2.67
2023-04-30T06:37:25.630Z,2.45
2023-04-30T06:39:53.719Z,1.98
2023-04-30T06:42:21.985Z,1.60
2023-04-30T06:44:49.682Z,2.00
2023-04-30T06:47:17.409Z,2.33
2023-04-30T06:49:44.998Z,2.30
2023-04-30T06:52:12.622Z,2.60
2023-04-30T06:54:42.867Z,2.28
2023-04-30T06:57:10.555Z,2.13
2023-04-30T06:59:39.349Z,2.45
2023-04-30T07:02:07.602Z,1.98
2023-04-30T07:04:35.358Z,2.83
2023-04-30T07:07:03.084Z,2.15
2023-04-30T07:09:30.939Z,1.95
2023-04-30T07:11:59.949Z,2.60
2023-04-30T07:14:27.561Z,2.03
2023-04-30T07:16:55.185Z,1.50
2023-04-30T07:19:23.569Z,1.52
2023-04-30T07:21:51.142Z,2.33
2023-04-30T07:24:18.827Z,2.42
2023-04-30T07:26:46.457Z,2.60
2023-04-30T07:29:15.513Z,2.58
2023-04-30T07:31:43.305Z,1.90
2023-04-30T07:34:10.970Z,2.38
2023-04-30T07:36:39.286Z,1.95
2023-04-30T07:39:07.958Z,2.50
2023-04-30T07:41:35.783Z,2.13
2023-04-30T07:44:03.442Z,3.53
2023-04-30T07:46:32.501Z,2.10
2023-04-30T07:49:00.209Z,1.73
2023-04-30T07:51:27.974Z,2.22
2023-04-30T07:53:55.550Z,1.80
2023-04-30T07:56:23.216Z,1.75
2023-04-30T07:58:50.859Z,2.28
2023-04-30T08:01:18.777Z,2.63
2023-04-30T08:03:47.762Z,2.17
2023-04-30T08:06:15.446Z,2.60
2023-04-30T08:08:43.027Z,2.70
2023-04-30T08:11:10.617Z,3.17
2023-04-30T08:13:38.253Z,2.38
2023-04-30T08:16:06.398Z,2.85
2023-04-30T08:18:34.050Z,2.33
2023-04-30T08:21:02.975Z,3.25
2023-04-30T08:23:30.559Z,1.65
2023-04-30T08:25:58.382Z,2.50
2023-04-30T08:28:26.057Z,2.60
2023-04-30T08:30:53.645Z,2.53
2023-04-30T08:33:21.360Z,2.28
2023-04-30T08:35:49.014Z,2.17
2023-04-30T08:38:18.326Z,1.90
2023-04-30T08:40:53.580Z,3.63
2023-04-30T08:43:21.452Z,2.55
2023-04-30T08:45:51.957Z,2.65
2023-04-30T08:48:22.197Z,2.20
2023-04-30T08:50:50.103Z,2.30
2023-04-30T08:53:21.467Z,1.95
2023-04-30T08:55:53.663Z,2.20
2023-04-30T08:58:21.259Z,2.38
2023-04-30T09:00:48.884Z,2.05
2023-04-30T09:03:17.012Z,2.03
2023-04-30T09:05:45.508Z,1.52
2023-04-30T09:08:42.011Z,2.30
2023-04-30T09:11:22.870Z,2.85
2023-04-30T09:13:52.611Z,1.98
2023-04-30T09:16:25.376Z,2.58
2023-04-30T09:18:53.204Z,1.75
2023-04-30T09:21:33.053Z,2.08
2023-04-30T09:24:03.106Z,2.08
2023-04-30T09:26:34.228Z,1.83
2023-04-30T09:29:08.303Z,1.60
2023-04-30T09:31:36.915Z,1.98
2023-04-30T09:34:06.032Z,1.70
2023-04-30T09:36:35.104Z,2.65
2023-04-30T09:39:14.840Z,2.83
2023-04-30T09:41:43.810Z,2.00
2023-04-30T09:44:29.475Z,1.73
2023-04-30T09:46:58.453Z,2.08
2023-04-30T09:49:27.180Z,2.80
2023-04-30T09:51:55.596Z,2.20
2023-04-30T09:54:27.395Z,1.88
2023-04-30T09:56:56.468Z,1.85
2023-04-30T09:59:30.653Z,1.85
2023-04-30T10:02:01.673Z,1.90
2023-04-30T10:04:33.252Z,2.38
2023-04-30T10:07:04.803Z,1.33
2023-04-30T10:09:44.568Z,1.80
2023-04-30T10:12:16.131Z,3.67
2023-04-30T10:14:52.830Z,3.47
2023-04-30T10:17:24.732Z,4.47
2023-04-30T10:19:56.539Z,2.75
2023-04-30T10:22:25.013Z,2.00
2023-04-30T10:24:54.722Z,2.28
2023-04-30T10:27:22.436Z,2.78
2023-04-30T10:29:51.259Z,1.88
2023-04-30T10:32:21.419Z,1.30
2023-04-30T10:34:55.487Z,1.98
2023-04-30T10:37:32.063Z,1.90
2023-04-30T10:40:02.055Z,2.28
2023-04-30T10:42:29.812Z,2.22
2023-04-30T10:44:57.995Z,1.63
2023-04-30T10:47:30.361Z,2.30
2023-04-30T10:50:03.625Z,2.50
2023-04-30T10:52:31.436Z,2.28
2023-04-30T10:54:59.009Z,2.75
2023-04-30T10:57:30.652Z,2.28
2023-04-30T11:00:19.975Z,1.83
2023-04-30T11:02:49.934Z,2.42
2023-04-30T11:05:19.587Z,2.30
2023-04-30T11:07:52.094Z,2.28
2023-04-30T11:10:25.653Z,1.40
2023-04-30T11:12:56.181Z,1.48
2023-04-30T11:15:27.735Z,2.10
2023-04-30T11:17:58.369Z,2.03
2023-04-30T11:20:27.037Z,2.25
2023-04-30T11:23:10.204Z,2.00
2023-04-30T11:25:44.499Z,1.98
2023-04-30T11:28:17.800Z,2.10
2023-04-30T11:30:56.521Z,2.50
2023-04-30T11:33:32.450Z,1.88
2023-04-30T11:36:03.955Z,2.50
2023-04-30T11:38:36.551Z,2.10
2023-04-30T11:41:05.680Z,1.88
2023-04-30T11:43:36.187Z,2.85
2023-04-30T11:46:08.844Z,1.95
2023-04-30T11:48:38.372Z,2.03
2023-04-30T11:51:15.939Z,2.08
2023-04-30T11:53:48.531Z,2.00
2023-04-30T11:56:21.204Z,1.77
2023-04-30T11:58:52.946Z,2.95
2023-04-30T12:01:21.569Z,2.15
2023-04-30T12:03:51.297Z,2.05
2023-04-30T12:06:23.568Z,2.05
2023-04-30T12:08:53.484Z,3.00
2023-04-30T12:11:25.234Z,2.05
2023-04-30T12:13:56.523Z,1.90
2023-04-30T12:16:25.768Z,2.15
2023-04-30T12:18:53.484Z,1.90
2023-04-30T12:21:22.708Z,2.65
2023-04-30T12:23:50.555Z,2.25
2023-04-30T12:26:18.790Z,1.80
2023-04-30T12:28:48.327Z,2.47
2023-04-30T12:31:18.483Z,2.20
2023-04-30T12:33:54.760Z,1.65
2023-04-30T12:36:26.228Z,2.28
2023-04-30T12:39:03.092Z,2.15
2023-04-30T12:41:30.862Z,2.25
2023-04-30T12:44:22.295Z,2.65
2023-04-30T12:46:56.013Z,2.08
2023-04-30T12:49:25.916Z,2.00
2023-04-30T12:52:00.868Z,1.70
2023-04-30T12:54:33.165Z,3.08
2023-04-30T12:57:03.171Z,2.00
2023-04-30T12:59:31.868Z,2.25
2023-04-30T13:02:14.614Z,2.08
2023-04-30T13:04:43.509Z,2.22
2023-04-30T13:07:11.874Z,2.28
2023-04-30T13:09:40.154Z,1.98
2023-04-30T13:12:08.496Z,2.00
2023-04-30T13:14:36.380Z,2.00
2023-04-30T13:17:05.832Z,3.10
2023-04-30T13:19:36.398Z,2.50
2023-04-30T13:22:04.458Z,1.65
2023-04-30T13:24:32.085Z,1.77
2023-04-30T13:27:00.183Z,2.33
2023-04-30T13:29:27.824Z,2.10
2023-04-30T13:31:55.640Z,2.28
2023-04-30T13:34:23.536Z,1.80
2023-04-30T13:36:53.416Z,2.60
2023-04-30T13:39:22.059Z,2.63
2023-04-30T13:41:49.786Z,2.00
2023-04-30T13:44:17.959Z,1.65
2023-04-30T13:46:46.365Z,2.03
2023-04-30T13:49:15.863Z,2.40
2023-04-30T13:51:44.408Z,2.38
2023-04-30T13:54:13.494Z,2.20
2023-04-30T13:56:41.186Z,1.73
2023-04-30T13:59:09.578Z,2.15
2023-04-30T14:01:37.133Z,1.90
2023-04-30T14:04:05.359Z,1.73
2023-04-30T14:06:33.116Z,1.73
2023-04-30T14:09:00.968Z,1.63
2023-04-30T14:11:29.921Z,1.77
2023-04-30T14:13:57.490Z,1.95
2023-04-30T14:16:26.370Z,2.40
2023-04-30T14:18:54.011Z,1.95
2023-04-30T14:21:21.571Z,1.65
2023-04-30T14:23:49.197Z,1.55
2023-04-30T14:26:16.877Z,2.03
2023-04-30T14:28:45.810Z,2.20
2023-04-30T14:31:13.504Z,2.38
2023-04-30T14:33:41.193Z,2.00
2023-04-30T14:36:09.344Z,2.75
2023-04-30T14:38:36.964Z,2.63
2023-04-30T14:41:06.775Z,2.58
2023-04-30T14:43:34.591Z,1.90
2023-04-30T14:46:03.935Z,2.50
2023-04-30T14:48:32.935Z,1.77
2023-04-30T14:51:01.743Z,1.67
2023-04-30T14:53:30.635Z,1.52
2023-04-30T14:56:00.877Z,1.83
2023-04-30T14:58:28.724Z,2.38
2023-04-30T15:03:25.417Z,2.53
2023-04-30T15:05:59.184Z,1.95
2023-04-30T15:08:26.995Z,1.90
2023-04-30T15:10:54.978Z,1.92
2023-04-30T15:13:22.538Z,2.72
2023-04-30T15:15:50.253Z,2.35
2023-04-30T15:18:17.911Z,1.90
2023-04-30T15:20:47.118Z,1.80
2023-04-30T15:23:14.681Z,1.90
2023-04-30T15:25:43.984Z,1.83
2023-04-30T15:28:11.578Z,2.28
2023-04-30T15:30:39.236Z,2.60
2023-04-30T15:33:06.805Z,1.80
2023-04-30T15:35:34.466Z,1.98
2023-04-30T15:38:03.564Z,2.88
2023-04-30T15:40:31.109Z,2.88
2023-04-30T15:42:58.754Z,1.70
2023-04-30T15:45:27.506Z,2.10
2023-04-30T15:47:55.414Z,2.58
2023-04-30T15:50:23.142Z,1.92
2023-04-30T15:52:50.673Z,1.77
2023-04-30T15:55:19.758Z,2.40
2023-04-30T15:57:47.372Z,2.25
2023-04-30T16:00:16.079Z,1.48
2023-04-30T16:02:43.836Z,1.55
2023-04-30T16:05:11.861Z,1.52
2023-04-30T16:07:40.770Z,2.17
2023-04-30T16:10:10.915Z,2.75
2023-04-30T16:12:40.078Z,1.85
2023-04-30T16:15:09.434Z,1.75
2023-04-30T16:17:37.528Z,1.70
2023-04-30T16:20:06.815Z,2.00
2023-04-30T16:22:36.140Z,2.35
2023-04-30T16:25:03.999Z,2.30
2023-04-30T16:27:32.262Z,1.95
2023-04-30T16:30:01.307Z,1.83
2023-04-30T16:32:29.024Z,1.77
2023-04-30T16:34:57.239Z,2.25
2023-04-30T16:37:25.840Z,2.30
2023-04-30T16:39:53.635Z,2.28
2023-04-30T16:42:21.482Z,1.90
2023-04-30T16:44:49.052Z,1.92
2023-04-30T16:47:20.826Z,2.38
2023-04-30T16:49:48.618Z,2.55
2023-04-30T16:52:16.248Z,2.42
2023-04-30T16:54:44.155Z,2.03
2023-04-30T16:57:11.838Z,2.30
2023-04-30T16:59:39.427Z,1.63
2023-04-30T17:02:08.056Z,2.08
2023-04-30T17:04:37.077Z,2.03
2023-04-30T17:07:04.942Z,1.70
2023-04-30T17:09:32.574Z,2.33
2023-04-30T17:12:00.182Z,1.67
2023-04-30T17:14:28.486Z,1.85
2023-04-30T17:16:56.253Z,2.67
2023-04-30T17:19:24.278Z,2.22
2023-04-30T17:21:53.167Z,2.17
2023-04-30T17:24:20.786Z,2.72
2023-04-30T17:26:48.595Z,2.40
2023-04-30T17:29:16.496Z,2.22
2023-04-30T17:31:44.244Z,1.73
2023-04-30T17:34:12.423Z,2.17
2023-04-30T17:36:40.003Z,2.75
2023-04-30T17:39:09.159Z,3.13
2023-04-30T17:41:36.764Z,2.00
2023-04-30T17:44:04.630Z,2.40
2023-04-30T17:46:32.229Z,2.08
2023-04-30T17:49:01.627Z,2.28
2023-04-30T17:51:31.482Z,1.95
2023-04-30T17:53:59.539Z,2.33
2023-04-30T17:56:30.124Z,2.50
2023-04-30T17:58:58.048Z,1.98
2023-04-30T18:01:25.957Z,2.50
2023-04-30T18:03:54.222Z,2.28
2023-04-30T18:06:22.115Z,2.08
2023-04-30T18:08:49.761Z,2.22
2023-04-30T18:11:17.328Z,2.33
2023-04-30T18:13:46.404Z,2.08
2023-04-30T18:16:14.335Z,3.20
2023-04-30T18:18:42.104Z,2.30
2023-04-30T18:21:09.840Z,2.50
2023-04-30T18:23:37.535Z,2.50
2023-04-30T18:26:06.084Z,2.72
2023-04-30T18:28:33.957Z,3.53
2023-04-30T18:31:03.268Z,1.88
2023-04-30T18:33:30.916Z,2.95
2023-04-30T18:36:05.286Z,2.65
2023-04-30T18:38:33.479Z,2.80
2023-04-30T18:41:01.780Z,1.70
2023-04-30T18:43:29.627Z,2.13
2023-04-30T18:45:57.662Z,2.28
2023-04-30T18:48:26.812Z,2.08
2023-04-30T18:50:54.477Z,2.20
2023-04-30T18:53:22.167Z,2.20
2023-04-30T18:55:49.794Z,2.60
2023-04-30T18:58:17.637Z,2.55
2023-04-30T19:00:45.447Z,1.98
2023-04-30T19:03:13.289Z,2.80
2023-04-30T19:05:42.859Z,2.83
2023-04-30T19:08:10.428Z,3.53
2023-04-30T19:10:38.157Z,3.10
2023-04-30T19:13:07.594Z,3.45
2023-04-30T19:15:35.606Z,2.63
2023-04-30T19:18:03.477Z,2.95
2023-04-30T19:20:31.232Z,2.60
2023-04-30T19:23:00.334Z,2.33
2023-04-30T19:25:28.077Z,2.28
2023-04-30T19:27:55.744Z,2.38
2023-04-30T19:30:23.553Z,2.65
2023-04-30T19:32:51.370Z,2.58
2023-04-30T19:35:19.393Z,2.65
2023-04-30T19:37:47.051Z,2.75
2023-04-30T19:40:18.265Z,3.28
2023-04-30T19:42:47.536Z,2.63
2023-04-30T19:45:15.532Z,3.08
2023-04-30T19:47:43.222Z,3.25
2023-04-30T19:50:11.395Z,2.72
2023-04-30T19:52:39.846Z,2.80
2023-04-30T19:55:08.177Z,2.75
2023-04-30T19:57:37.261Z,3.13
2023-04-30T20:00:06.292Z,2.42
2023-04-30T20:02:34.266Z,4.35
2023-04-30T20:05:02.017Z,3.58
2023-04-30T20:07:29.629Z,2.67
2023-04-30T20:09:57.500Z,3.03
2023-04-30T20:12:25.291Z,3.92
2023-04-30T20:14:54.321Z,2.75
2023-04-30T20:17:21.927Z,2.15
2023-04-30T20:19:49.709Z,3.22
2023-04-30T20:22:17.612Z,2.47
2023-04-30T20:24:46.737Z,2.50
2023-04-30T20:27:14.540Z,2.70
2023-04-30T20:29:42.656Z,2.78
2023-04-30T20:32:11.668Z,2.78
2023-04-30T20:34:39.371Z,2.45
2023-04-30T20:37:07.154Z,2.58
2023-04-30T20:39:34.943Z,2.28
2023-04-30T20:42:03.808Z,2.78
2023-04-30T20:44:31.500Z,2.20
2023-04-30T20:46:59.107Z,2.40
2023-04-30T20:49:28.509Z,2.15
2023-04-30T20:51:56.107Z,2.50
2023-04-30T20:54:23.731Z,2.58
2023-04-30T20:56:52.147Z,2.25
2023-04-30T20:59:20.046Z,3.15
2023-04-30T21:01:48.769Z,3.58
2023-04-30T21:04:16.500Z,2.75
2023-04-30T21:06:45.712Z,2.33
2023-04-30T21:09:13.521Z,2.78
2023-04-30T21:11:41.902Z,2.70
2023-04-30T21:14:09.554Z,3.60
2023-04-30T21:16:37.259Z,2.63
2023-04-30T21:19:04.857Z,3.10
2023-04-30T21:21:36.994Z,3.28
2023-04-30T21:24:09.065Z,3.47
2023-04-30T21:26:37.089Z,3.92
2023-04-30T21:29:04.756Z,3.45
2023-04-30T21:31:32.605Z,3.90
2023-04-30T21:34:00.529Z,3.10
2023-04-30T21:36:29.804Z,3.10
2023-04-30T21:38:58.199Z,3.90
2023-04-30T21:41:30.267Z,4.30
2023-04-30T21:43:58.276Z,3.75
2023-04-30T21:46:26.057Z,3.20
2023-04-30T21:48:53.744Z,3.30
2023-04-30T21:51:22.226Z,4.70
2023-04-30T21:53:49.943Z,3.63
2023-04-30T21:56:19.110Z,3.50
2023-04-30T21:58:49.537Z,3.63
2023-04-30T22:01:18.121Z,4.53
2023-04-30T22:03:45.891Z,4.55
2023-04-30T22:06:13.775Z,6.07
2023-04-30T22:08:41.566Z,4.28
2023-04-30T22:11:09.172Z,4.88
2023-04-30T22:13:37.017Z,3.60
2023-04-30T22:16:06.960Z,4.35
2023-04-30T22:18:35.420Z,4.63
2023-04-30T22:21:02.985Z,4.60
2023-04-30T22:23:30.823Z,4.03
2023-04-30T22:25:58.405Z,3.88
2023-04-30T22:28:26.022Z,4.57
2023-04-30T22:30:58.667Z,3.80
2023-04-30T22:33:27.869Z,4.20
2023-04-30T22:35:56.063Z,4.25
2023-04-30T22:38:23.646Z,3.90
2023-04-30T22:40:51.434Z,5.22
2023-04-30T22:43:19.280Z,3.90
2023-04-30T22:45:47.044Z,3.88
2023-04-30T22:48:15.804Z,5.30
2023-04-30T22:50:44.998Z,4.22
2023-04-30T22:53:13.280Z,5.35
2023-04-30T22:55:41.222Z,4.32
2023-04-30T22:58:08.801Z,3.95
2023-04-30T23:00:36.496Z,3.72
2023-04-30T23:03:04.282Z,4.05
2023-04-30T23:05:31.862Z,4.20
2023-04-30T23:08:01.091Z,3.85
2023-04-30T23:10:28.845Z,3.60
2023-04-30T23:12:58.554Z,4.55
2023-04-30T23:15:26.387Z,3.67
2023-04-30T23:17:55.743Z,5.13
2023-04-30T23:20:23.445Z,4.30
2023-04-30T23:22:51.649Z,3.53
2023-04-30T23:25:20.581Z,3.70
2023-04-30T23:27:48.266Z,3.55
2023-04-30T23:30:16.179Z,3.75
2023-04-30T23:32:43.737Z,4.93
2023-04-30T23:35:11.335Z,4.10
2023-04-30T23:37:39.253Z,4.03
2023-04-30T23:40:09.588Z,4.10
2023-04-30T23:42:38.508Z,3.55
2023-04-30T23:45:07.135Z,4.45
2023-04-30T23:47:36.157Z,3.88
2023-04-30T23:50:04.215Z,3.92
2023-04-30T23:52:31.938Z,3.63
2023-04-30T23:54:59.629Z,4.68
2023-04-30T23:57:28.129Z,3.33
2023-04-30T23:59:57.994Z,4.28
